Elk Grove Village, IL

4:27 AM CST en Noviembre 27, 2014 (GMT -0600)
Du Page | Change Station
CLOSE
Current Station
Aeropuerto
Location: Chicago DuPage,
Altura: 758 ft
Estaciones meteorológicas cercanas

Alt 758 ft 41.90 °N, 88.25 °W | Updated 35 minutes ago

Nublado
Nublado
20 ° F
Sensación térmica 10 ° F
N
8
Viento Variable Viento desde NO

Hoy
Alta -- | Baja -- ° F
--% Posibilidad de precipitaciones
Ayer
Alta -- | Baja -- ° F
Precip. -- pul
6:56 AM 4:22 PM
Creciente, 28% visible
Presión 30.27 pul
Visibilidad 6.0 Millas
Nubes Muy nublado 7000 ft
Muy nublado 9000 ft
Nublado 11000 ft
Vientos helados 10 ° F
Punto de rocío 16 ° F
Humedad 85%
Precipitaciones 0.00 pul
Espesor de la nieve No disponible.
UV 0 de una escala de 12
Polen .10 de una escala de 12
Calidad del aire No disponible.
Flu Activity No disponible.
METAR KDPA 270952Z 32007KT 6SM BR BKN070 BKN090 OVC110 M07/M09 A3023 RMK AO2 SLP250 T10671089

More Conditions Fewer Conditions

Presión 30.27 pul
Visibilidad 6.0 Millas
Nubes Muy nublado 7000 ft
Muy nublado 9000 ft
Nublado 11000 ft
Vientos helados 10 ° F
Punto de rocío 16 ° F
Humedad 85%
Precipitaciones 0.00 pul
Espesor de la nieve No disponible.
UV 0 de una escala de 12
Polen .10 de una escala de 12
Calidad del aire No disponible.
Flu Activity No disponible.
METAR KDPA 270952Z 32007KT 6SM BR BKN070 BKN090 OVC110 M07/M09 A3023 RMK AO2 SLP250 T10671089

More Conditions Fewer Conditions

10-Day Weather Forecast

Almanac

Astronomía

Nov. 27, 2014 Salida Puesta
Hora real
Crepúsculo civil
Crepúsculo náutico
Crepúsculo astronómico
Luna
Horas de luz
Horas de luz
Tomorrow will be .
, % of the Moon is Illuminated

Extremos de hoy

Máximos del estado Bajos del estado

Community

WunderPhotos

Upload Photos

1,773,968 ¡fotos cargadas!

WunderBlogs® & News

Nearby

Calidad del aire

  Calidad del aire Índice AQ Contaminante
Not available.

Grosos de nieve

Estación Profundido Altura

Actividad de terremotos

Ciudad Distance Mag. Tiempo y dato
Magnitud mínima muestra es 2,5.

Temperaturas de aguas costeras

Lugar Temperatura

Estaciones meteorológicas cercanas